Portada
METAR-TAF:

METAR-TAF

Aeroports :

Geilenkirchen, Alemanya

latitud: 50-57-39N, longitud: 006-2-33E, altitud: 90 m

Observació

L'informe es va fer fa 4 hores i 28 minuts, a les 16:50 UTC
Vent 6 kt del Sud-Oest
Temperatura 25°C
Humitat 41%
Pressió 1013 hPa
Visibilitat 10 km o més
sense núvols per sota de 1500 mi sense presència de cumulonimbus.

METAR: ETNG 191650Z 23006KT CAVOK 25/11 Q1013 NOSIG

Hora: 23:18 (21:18 UTC)

Pronòstic

L'informe es va fer fa 7 hores i 18 minuts, a les 14:00 UTC
Pronòstic vàlid del 19 a les 15 UTC al 20 a les 06 UTC
Vent 7 kt del Oest/Sud-Oest
Visibilitat 10 km o més
sense núvols per sota de 1500 mi sense presència de cumulonimbus.
Evolucionant progressivament
l' 19 a les 16 UTC al 19 a les 19 UTC
Vent 3 kt amb direcció variable

TAF: ETNG 191400Z 1915/2006 25007KT CAVOK BECMG 1916/1919 VRB03KT

Observacions i pronòstics meteorològics de més de 4000 aeroports (METAR i TAF).

Les estacions disponibles són els punts grocs i vermells al mapa.

Posi el ratolí al punt desitjat per veure el nom de l'estació.

Feu clic per veure les observacions i els pronòstics meteorològics.

Per canviar el mapa: feu clic els botons verds amb una creu de color negre per apropar; al botó verd amb un guió per allunyar la imatge; o en les fletxes verdes per a mapes adjacents.


METAR-TAF: